createdAt,value
2023-02-06T10:05:54.976Z,13.93
2023-02-06T10:08:23.886Z,13.44
2023-02-06T10:10:54.409Z,13.35
2023-02-06T10:13:24.564Z,13.48
2023-02-06T10:15:53.627Z,13.24
2023-02-06T10:18:24.410Z,13.34
2023-02-06T10:20:58.210Z,13.34
2023-02-06T10:23:27.658Z,13.14
2023-02-06T10:26:07.930Z,13.65
2023-02-06T10:28:35.098Z,13.27
2023-02-06T10:31:13.745Z,12.84
2023-02-06T10:33:44.663Z,12.72
2023-02-06T18:24:36.168Z,11.97
2023-02-06T18:27:03.252Z,10.12
2023-02-06T18:29:40.151Z,10.82
2023-02-06T18:32:15.559Z,11.41
2023-02-06T18:34:42.808Z,10.53
2023-02-06T18:37:10.019Z,10.72
2023-02-06T18:39:39.031Z,10.95
2023-02-06T18:42:06.308Z,11.02
2023-02-06T18:44:33.510Z,10.53
2023-02-06T18:47:00.677Z,10.91
2023-02-06T18:49:27.986Z,11.63
2023-02-06T18:51:55.139Z,11.69
2023-02-06T18:54:22.460Z,11.52
2023-02-06T18:56:51.562Z,11.63
2023-02-06T18:59:22.283Z,11.67
2023-02-06T19:01:52.409Z,11.27
2023-02-06T19:04:19.891Z,11.41
2023-02-06T19:06:47.300Z,11.01
2023-02-06T19:09:14.640Z,11.41
2023-02-06T19:11:42.074Z,11.11
2023-02-06T19:14:11.721Z,11.43
2023-02-06T19:16:39.018Z,11.27
2023-02-06T19:19:06.293Z,11.42
2023-02-06T19:21:33.597Z,11.58
2023-02-06T19:24:00.952Z,11.52
2023-02-06T19:26:28.324Z,11.67
2023-02-06T19:28:55.571Z,11.48
2023-02-06T19:31:24.319Z,12.25
2023-02-06T19:33:51.915Z,11.89
2023-02-06T19:36:19.113Z,12.35
2023-02-06T19:38:46.318Z,11.98
2023-02-06T19:41:14.551Z,11.33
2023-02-06T19:43:42.253Z,11.50
2023-02-06T19:46:10.641Z,11.16
2023-02-06T19:48:39.217Z,11.45
2023-02-06T19:51:07.238Z,11.93
2023-02-06T19:53:35.281Z,11.89
2023-02-06T19:56:02.646Z,12.15
2023-02-06T19:58:29.920Z,13.37
2023-02-06T20:00:57.278Z,12.81
2023-02-06T20:03:24.895Z,12.70
2023-02-06T20:05:53.698Z,11.83
2023-02-06T20:08:20.850Z,10.84
2023-02-06T20:10:48.167Z,11.10
2023-02-06T20:13:17.139Z,11.37
2023-02-06T20:15:44.366Z,11.24
2023-02-06T20:18:11.515Z,11.32
2023-02-06T20:20:38.769Z,11.67
2023-02-06T20:23:07.565Z,12.15
2023-02-06T20:25:36.548Z,12.06
2023-02-06T20:28:03.940Z,12.41
2023-02-06T20:30:31.232Z,11.78
2023-02-06T20:32:58.546Z,12.68
2023-02-06T20:35:26.267Z,12.38
2023-02-06T20:37:53.571Z,11.83
2023-02-06T20:40:22.289Z,12.24
